Date,TemperatureHighF,TemperatureAvgF,TemperatureLowF,DewpointHighF,DewpointAvgF,DewpointLowF,HumidityHigh,HumidityAvg,HumidityLow,PressureMaxIn,PressureMinIn,WindSpeedMaxMPH,WindSpeedAvgMPH,GustSpeedMaxMPH,PrecipitationSumIn
2013-1-1,16.0,9.9,4.0,-99.9,-99.9,-99.9,0,0,100,0.00,40.00,11,5,13,0.00
2013-1-2,25.0,17.8,11.0,-99.9,-99.9,-99.9,0,0,100,0.00,40.00,9,5,13,0.00
2013-1-3,28.0,20.5,12.0,-99.9,-99.9,-99.9,0,0,100,0.00,40.00,10,3,13,0.00
2013-1-4,33.0,21.6,12.0,-99.9,-99.9,-99.9,0,0,100,0.00,40.00,8,4,12,0.09
2013-1-5,37.0,27.8,18.0,-99.9,-99.9,-99.9,0,0,100,0.00,40.00,10,6,13,0.07
2013-1-6,28.0,21.2,18.0,-99.9,-99.9,-99.9,0,0,100,0.00,40.00,12,5,17,0.01
2013-1-7,38.0,28.8,17.0,-99.9,-99.9,-99.9,0,0,100,0.00,40.00,15,8,20,0.00
2013-1-8,41.0,33.3,23.0,-99.9,-99.9,-99.9,0,0,100,0.00,40.00,15,7,17,0.00
2013-1-9,40.0,34.9,29.0,-99.9,-99.9,-99.9,0,0,100,0.00,40.00,9,3,14,0.00
2013-1-10,41.0,32.2,23.0,-99.9,-99.9,-99.9,0,0,100,0.00,40.00,11,4,17,0.14
2013-1-11,49.0,41.0,34.0,-99.9,-99.9,-99.9,0,0,100,0.00,40.00,14,7,17,0.16
2013-1-12,51.0,32.2,22.0,-99.9,-99.9,-99.9,0,0,100,0.00,40.00,16,7,21,0.02
2013-1-13,22.0,15.2,12.0,-99.9,-99.9,-99.9,0,0,100,0.00,40.00,17,9,21,0.00
2013-1-14,27.0,17.1,9.0,-99.9,-99.9,-99.9,0,0,100,0.00,40.00,8,2,9,0.00
2013-1-15,32.0,23.5,17.0,-99.9,-99.9,-99.9,0,0,100,0.00,40.00,10,5,16,0.00
2013-1-16,37.0,29.2,20.0,-99.9,-99.9,-99.9,0,0,100,0.00,40.00,16,6,21,0.00
2013-1-17,33.0,25.0,19.0,-99.9,-99.9,-99.9,0,0,100,0.00,40.00,15,7,20,0.00
2013-1-18,49.0,36.2,23.0,-99.9,-99.9,-99.9,0,0,100,0.00,40.00,16,8,23,0.00
2013-1-19,48.0,37.5,18.0,-99.9,-99.9,-99.9,0,0,100,0.00,40.00,25,8,31,0.00
2013-1-20,17.0,12.2,8.0,-99.9,-99.9,-99.9,0,0,100,0.00,40.00,20,10,27,0.00
2013-1-21,13.0,5.4,1.0,-99.9,-99.9,-99.9,0,0,100,0.00,40.00,19,11,28,0.00
2013-1-22,11.0,5.2,-2.0,-99.9,-99.9,-99.9,0,0,100,0.00,40.00,10,5,17,0.00
2013-1-23,23.0,15.7,9.0,-99.9,-99.9,-99.9,0,0,100,0.00,40.00,20,8,28,0.00
2013-1-24,20.0,9.8,2.0,-99.9,-99.9,-99.9,0,0,100,0.00,40.00,15,7,20,0.00
2013-1-25,29.0,22.9,16.0,-99.9,-99.9,-99.9,0,0,100,0.00,40.00,20,9,27,0.00
2013-1-26,27.0,19.1,10.0,-99.9,-99.9,-99.9,0,0,100,0.00,40.00,12,6,16,0.00
2013-1-27,37.0,30.3,27.0,-99.9,-99.9,-99.9,0,0,100,0.00,40.00,16,10,23,0.04
2013-1-28,45.0,38.5,34.0,-99.9,-99.9,-99.9,0,0,100,0.00,40.00,9,4,11,0.12
2013-1-29,55.0,41.4,34.0,-99.9,-99.9,-99.9,0,0,100,0.00,40.00,12,6,15,0.69
2013-1-30,35.0,27.2,17.0,-99.9,-99.9,-99.9,0,0,100,0.00,40.00,26,15,32,0.17
2013-1-31,11.0,6.4,-1.0,-99.9,-99.9,-99.9,0,0,100,0.00,40.00,15,11,22,0.00
2013-2-1,10.0,1.8,-7.0,-99.9,-99.9,-99.9,0,0,100,0.00,40.00,8,4,12,0.00
2013-2-2,16.0,13.2,10.0,-99.9,-99.9,-99.9,0,0,100,0.00,40.00,15,6,18,0.00
2013-2-3,22.0,17.9,13.0,-99.9,-99.9,-99.9,0,0,100,0.00,40.00,17,5,22,0.00
2013-2-4,22.0,18.6,13.0,-99.9,-99.9,-99.9,0,0,100,0.00,40.00,11,4,16,0.00
2013-2-5,33.0,24.0,12.0,-99.9,-99.9,-99.9,0,0,100,0.00,40.00,18,7,29,0.11
2013-2-6,38.0,25.4,2.0,-99.9,-99.9,-99.9,0,0,100,0.00,40.00,11,5,13,0.16
2013-2-7,37.0,34.5,31.0,-99.9,-99.9,-99.9,0,0,100,0.00,40.00,16,7,19,0.29
2013-2-8,32.0,26.9,22.0,-99.9,-99.9,-99.9,0,0,100,0.00,40.00,14,6,17,0.08
2013-2-9,32.0,27.8,23.0,-99.9,-99.9,-99.9,0,0,100,0.00,40.00,19,10,24,0.01
2013-2-10,46.0,37.1,29.0,-99.9,-99.9,-99.9,0,0,100,0.00,40.00,21,10,27,0.08
2013-2-11,36.0,30.5,25.0,-99.9,-99.9,-99.9,0,0,100,0.00,40.00,14,8,20,0.01
2013-2-12,36.0,28.8,23.0,-99.9,-99.9,-99.9,0,0,100,0.00,40.00,8,4,15,0.01
2013-2-13,41.0,31.6,22.0,-99.9,-99.9,-99.9,0,0,100,0.00,40.00,8,2,11,0.00
2013-2-14,40.0,36.0,31.0,-99.9,-99.9,-99.9,0,0,100,0.00,40.00,23,9,27,0.00
2013-2-15,30.0,22.4,16.0,-99.9,-99.9,-99.9,0,0,100,0.00,40.00,21,12,24,0.00
2013-2-16,21.0,16.4,12.0,-99.9,-99.9,-99.9,0,0,100,0.00,40.00,16,6,19,0.00
2013-2-17,33.0,23.6,13.0,-99.9,-99.9,-99.9,0,0,100,0.00,40.00,19,10,23,0.00
2013-2-18,49.0,34.9,18.0,-99.9,-99.9,-99.9,0,0,100,0.00,40.00,22,12,29,0.04
2013-2-19,17.0,10.4,5.0,-99.9,-99.9,-99.9,0,0,100,0.00,40.00,19,14,26,0.02
2013-2-20,22.0,12.3,5.0,-99.9,-99.9,-99.9,0,0,100,0.00,40.00,14,8,17,0.00
2013-2-21,27.0,22.1,15.0,-99.9,-99.9,-99.9,0,0,100,0.00,40.00,9,5,16,0.00
2013-2-22,30.0,27.0,25.0,-99.9,-99.9,-99.9,0,0,100,0.00,40.00,8,3,15,0.22
2013-2-23,29.0,23.6,17.0,-99.9,-99.9,-99.9,0,0,100,0.00,40.00,6,2,10,0.05
2013-2-24,36.0,20.2,5.0,-99.9,-99.9,-99.9,0,0,100,0.00,40.00,4,2,5,0.01
2013-2-25,42.0,28.4,15.0,-99.9,-99.9,-99.9,0,0,100,0.00,40.00,5,2,7,0.00
2013-2-26,35.0,32.7,30.0,-99.9,-99.9,-99.9,0,0,100,0.00,40.00,18,9,28,0.00
2013-2-27,32.0,30.5,29.0,-99.9,-99.9,-99.9,0,0,100,0.00,40.00,15,12,19,0.03
2013-2-28,34.0,31.9,30.0,-99.9,-99.9,-99.9,0,0,100,0.00,40.00,13,9,16,0.03
2013-3-1,30.0,26.6,20.0,-99.9,-99.9,-99.9,0,0,100,0.00,40.00,12,7,16,0.00
2013-3-2,28.0,17.6,7.0,-99.9,-99.9,-99.9,0,0,100,0.00,40.00,11,5,12,0.00
2013-3-3,34.0,19.2,5.0,-99.9,-99.9,-99.9,0,0,100,0.00,40.00,6,2,8,0.00
2013-3-4,32.0,27.8,24.0,-99.9,-99.9,-99.9,0,0,100,0.00,40.00,12,7,21,0.01
2013-3-5,29.0,27.9,24.0,-99.9,-99.9,-99.9,0,0,100,0.00,40.00,16,8,18,0.01
2013-3-6,29.0,24.6,5.0,-99.9,-99.9,-99.9,0,0,100,0.00,40.00,15,9,19,0.00
2013-3-7,35.0,18.3,-2.0,-99.9,-99.9,-99.9,0,0,100,0.00,40.00,5,2,8,0.00
2013-3-8,39.0,27.5,13.0,-99.9,-99.9,-99.9,0,0,100,0.00,40.00,14,6,19,0.00
2013-3-9,40.0,36.9,34.0,-99.9,-99.9,-99.9,0,0,100,0.00,40.00,16,9,21,0.00
2013-3-10,42.0,38.4,35.0,-99.9,-99.9,-99.9,0,0,100,0.00,40.00,11,5,15,0.00
2013-3-11,36.0,33.3,31.0,-99.9,-99.9,-99.9,0,0,100,0.00,40.00,13,9,16,0.00
2013-3-12,36.0,28.9,25.0,-99.9,-99.9,-99.9,0,0,100,0.00,40.00,18,7,27,0.00
2013-3-13,32.0,26.6,22.0,-99.9,-99.9,-99.9,0,0,100,0.00,40.00,15,10,22,0.00
2013-3-14,39.0,29.2,23.0,-99.9,-99.9,-99.9,0,0,100,0.00,40.00,10,5,15,0.00
2013-3-15,38.0,31.5,25.0,-99.9,-99.9,-99.9,0,0,100,0.00,40.00,7,2,12,0.00
2013-3-16,35.0,31.5,29.0,-99.9,-99.9,-99.9,0,0,100,0.00,40.00,12,7,15,0.00
2013-3-17,33.0,28.5,23.0,-99.9,-99.9,-99.9,0,0,100,0.00,40.00,14,8,17,0.00
2013-3-18,34.0,27.8,19.0,-99.9,-99.9,-99.9,0,0,100,0.00,40.00,9,-22,16,0.00
2013-3-19,29.0,21.3,13.0,-99.9,-99.9,-99.9,0,0,100,0.00,40.00,15,-16,20,0.00
2013-3-20,22.0,16.1,10.0,-99.9,-99.9,-99.9,0,0,100,0.00,40.00,20,13,29,0.00
2013-3-21,28.0,18.6,10.0,-99.9,-99.9,-99.9,0,0,100,0.00,40.00,8,4,12,0.00
2013-3-22,34.0,24.3,14.0,-99.9,-99.9,-99.9,0,0,100,0.00,40.00,4,2,6,0.00
2013-3-23,40.0,31.8,22.0,-99.9,-99.9,-99.9,0,0,100,0.00,40.00,4,1,8,0.00
2013-3-24,34.0,31.3,29.0,-99.9,-99.9,-99.9,0,0,100,0.00,40.00,13,7,20,0.00
2013-3-25,34.0,31.8,28.0,-99.9,-99.9,-99.9,0,0,100,0.00,40.00,18,12,21,0.00
2013-3-26,39.0,33.4,27.0,-99.9,-99.9,-99.9,0,0,100,0.00,40.00,11,7,13,0.00
2013-3-27,41.0,34.3,29.0,-99.9,-99.9,-99.9,0,0,100,0.00,40.00,8,3,8,0.00
2013-3-28,46.0,36.1,26.0,-99.9,-99.9,-99.9,0,0,100,0.00,40.00,8,2,10,0.00
2013-3-29,52.0,41.3,30.0,-99.9,-99.9,-99.9,0,0,100,0.00,40.00,5,2,8,0.00
2013-3-30,54.0,45.6,39.0,-99.9,-99.9,-99.9,0,0,100,0.00,40.00,13,7,17,0.00
2013-3-31,45.0,40.3,35.0,-99.9,-99.9,-99.9,0,0,100,0.00,40.00,24,8,30,0.00
2013-4-1,35.0,31.9,28.0,-99.9,-99.9,-99.9,0,0,100,0.00,40.00,16,11,23,0.00
2013-4-2,40.0,32.7,26.0,-99.9,-99.9,-99.9,0,0,100,0.00,40.00,16,7,21,0.00
2013-4-3,47.0,36.1,26.0,-99.9,-99.9,-99.9,0,0,100,0.00,40.00,9,4,13,0.00
2013-4-4,57.0,45.0,33.0,-99.9,-99.9,-99.9,0,0,100,0.00,40.00,11,5,15,0.00
2013-4-5,54.0,43.9,36.0,-99.9,-99.9,-99.9,0,0,100,0.00,40.00,13,5,20,0.00
2013-4-6,63.0,48.6,39.0,-99.9,-99.9,-99.9,0,0,100,0.00,40.00,15,10,26,0.00
2013-4-7,56.0,46.8,39.0,-99.9,-99.9,-99.9,0,0,100,0.00,40.00,15,6,22,0.00
2013-4-8,61.0,49.9,42.0,-99.9,-99.9,-99.9,0,0,100,0.00,40.00,14,6,18,0.00
2013-4-9,53.0,45.4,41.0,-99.9,-99.9,-99.9,0,0,100,0.00,40.00,11,5,18,0.07
2013-4-10,41.0,38.5,36.0,-99.9,-99.9,-99.9,0,0,100,0.00,40.00,19,6,33,0.44
2013-4-11,43.0,40.6,38.0,-99.9,-99.9,-99.9,0,0,100,0.00,40.00,11,6,21,0.01
2013-4-12,41.0,38.0,36.0,-99.9,-99.9,-99.9,0,0,100,0.00,40.00,12,6,19,0.00
2013-4-13,43.0,38.2,33.0,-99.9,-99.9,-99.9,0,0,100,0.00,40.00,10,4,15,0.00
2013-4-14,67.0,47.1,35.0,-99.9,-99.9,-99.9,0,0,100,0.00,40.00,17,8,23,0.01
2013-4-15,56.0,46.4,41.0,-99.9,-99.9,-99.9,0,0,100,0.00,40.00,9,4,14,0.01
2013-4-16,51.0,43.1,34.0,-99.9,-99.9,-99.9,0,0,100,0.00,40.00,13,6,16,0.00
2013-4-17,47.0,43.4,40.0,-99.9,-99.9,-99.9,0,0,100,0.00,40.00,19,6,32,0.14
2013-4-18,57.0,46.7,38.0,-99.9,-99.9,-99.9,0,0,100,0.00,40.00,18,8,25,0.77
2013-4-19,39.0,36.8,35.0,-99.9,-99.9,-99.9,0,0,100,0.00,40.00,15,7,23,0.76
2013-4-20,45.0,38.3,30.0,-99.9,-99.9,-99.9,0,0,100,0.00,40.00,9,3,10,0.00
2013-4-21,55.0,45.4,38.0,-99.9,-99.9,-99.9,0,0,100,0.00,40.00,21,13,25,0.00
2013-4-22,65.0,54.9,46.0,-99.9,-99.9,-99.9,0,0,100,0.00,40.00,16,10,19,0.00
2013-4-23,56.0,43.1,38.0,-99.9,-99.9,-99.9,0,0,100,0.00,40.00,18,10,23,0.00
2013-4-24,53.0,43.7,35.0,-99.9,-99.9,-99.9,0,0,100,0.00,40.00,13,7,17,0.00
2013-4-25,53.0,43.6,36.0,-99.9,-99.9,-99.9,0,0,100,0.00,40.00,12,5,16,0.00
2013-4-26,68.0,56.1,44.0,-99.9,-99.9,-99.9,0,0,100,0.00,40.00,17,10,25,0.00
2013-4-27,63.0,55.9,49.0,-99.9,-99.9,-99.9,0,0,100,0.00,40.00,9,5,12,0.00
2013-4-28,71.0,57.0,46.0,-99.9,-99.9,-99.9,0,0,100,0.00,40.00,9,3,11,0.00
2013-4-29,76.0,60.5,53.0,-99.9,-99.9,-99.9,0,0,100,0.00,40.00,14,5,19,0.23
2013-4-30,88.0,76.1,60.0,-99.9,-99.9,-99.9,0,0,100,0.00,40.00,16,-17,26,0.23
2013-5-1,73.0,63.8,51.0,-99.9,-99.9,-99.9,0,0,100,0.00,40.00,20,10,29,0.00
2013-5-2,50.0,43.4,38.0,-99.9,-99.9,-99.9,0,0,100,0.00,40.00,17,14,24,0.11
2013-5-3,47.0,39.5,36.0,-99.9,-99.9,-99.9,0,0,100,0.00,40.00,14,10,20,0.83
2013-5-4,68.0,58.4,47.0,-99.9,-99.9,-99.9,0,0,100,0.00,40.00,7,3,12,0.18
2013-5-5,73.0,61.2,51.0,-99.9,-99.9,-99.9,0,0,100,0.00,40.00,9,3,11,0.00
2013-5-6,76.0,61.3,51.0,-99.9,-99.9,-99.9,0,0,100,0.00,40.00,6,3,9,0.00
2013-5-7,79.0,62.9,52.0,-99.9,-99.9,-99.9,0,0,100,0.00,40.00,4,2,6,0.00
2013-5-8,77.0,63.8,53.0,-99.9,-99.9,-99.9,0,0,100,0.00,40.00,7,2,9,0.00
2013-5-9,66.0,61.6,56.0,-99.9,-99.9,-99.9,0,0,100,0.00,40.00,9,3,13,0.03
2013-5-10,59.0,51.8,47.0,-99.9,-99.9,-99.9,0,0,100,0.00,40.00,12,7,19,0.02
2013-5-11,55.0,51.6,47.0,-99.9,-99.9,-99.9,0,0,100,0.00,40.00,29,15,37,0.00
2013-5-12,56.0,48.2,41.0,-99.9,-99.9,-99.9,0,0,100,0.00,40.00,16,10,23,0.00
2013-5-13,68.0,55.6,40.0,-99.9,-99.9,-99.9,0,0,100,0.00,40.00,11,4,17,0.00
2013-5-14,91.0,69.8,57.0,-99.9,-99.9,-99.9,0,0,100,0.00,40.00,13,8,20,0.00
2013-5-15,81.0,69.8,63.0,-99.9,-99.9,-99.9,0,0,100,0.00,40.00,11,5,15,0.00
2013-5-16,81.0,62.9,57.0,-99.9,-99.9,-99.9,0,0,100,0.00,40.00,9,4,13,0.00
2013-5-17,75.0,66.6,61.0,-99.9,-99.9,-99.9,0,0,100,0.00,40.00,9,5,14,0.00
2013-5-18,80.0,69.3,58.0,-99.9,-99.9,-99.9,0,0,100,0.00,40.00,13,6,18,0.00
2013-5-19,81.0,72.4,66.0,-99.9,-99.9,-99.9,0,0,100,0.00,40.00,21,9,31,0.01
2013-5-20,81.0,72.1,64.0,-99.9,-99.9,-99.9,0,0,100,0.00,40.00,20,11,24,0.17
2013-5-21,74.0,69.4,64.0,-99.9,-99.9,-99.9,0,0,100,0.00,40.00,12,6,18,0.00
2013-5-22,70.0,63.2,60.0,-99.9,-99.9,-99.9,0,0,100,0.00,40.00,8,3,10,0.01
2013-5-23,66.0,59.4,55.0,-99.9,-99.9,-99.9,0,0,100,0.00,40.00,15,8,19,0.02
2013-5-24,66.0,56.3,45.0,-99.9,-99.9,-99.9,0,0,100,0.00,40.00,8,4,11,0.00
2013-5-25,61.0,53.1,50.0,-99.9,-99.9,-99.9,0,0,100,0.00,40.00,13,7,16,0.01
2013-5-26,58.0,53.3,49.0,-99.9,-99.9,-99.9,0,0,100,0.00,40.00,17,6,21,0.06
2013-5-27,63.0,57.9,54.0,-99.9,-99.9,-99.9,0,0,100,0.00,40.00,10,6,13,0.03
2013-5-28,70.0,62.1,56.0,-99.9,-99.9,-99.9,0,0,100,0.00,40.00,7,2,8,0.08
2013-5-29,79.0,68.2,60.0,-99.9,-99.9,-99.9,0,0,100,0.00,40.00,17,6,21,0.04
2013-5-30,74.0,69.7,65.0,-99.9,-99.9,-99.9,0,0,100,0.00,40.00,18,9,23,0.00
2013-5-31,76.0,73.3,68.0,-99.9,-99.9,-99.9,0,0,100,0.00,40.00,18,11,25,0.00
2013-6-1,75.0,69.4,64.0,-99.9,-99.9,-99.9,0,0,100,0.00,40.00,9,5,16,0.00
2013-6-2,65.0,58.6,53.0,-99.9,-99.9,-99.9,0,0,100,0.00,40.00,20,10,26,0.00
2013-6-3,73.0,61.5,51.0,-99.9,-99.9,-99.9,0,0,100,0.00,40.00,6,2,8,0.00
2013-6-4,66.0,61.5,59.0,-99.9,-99.9,-99.9,0,0,100,0.00,40.00,16,5,19,0.02
2013-6-5,67.0,60.1,56.0,-99.9,-99.9,-99.9,0,0,100,0.00,40.00,10,5,13,0.07
2013-6-6,64.0,60.1,57.0,-99.9,-99.9,-99.9,0,0,100,0.00,40.00,6,3,9,0.01
2013-6-7,70.0,62.3,57.0,-99.9,-99.9,-99.9,0,0,100,0.00,40.00,8,4,10,0.00
2013-6-8,71.0,65.7,59.0,-99.9,-99.9,-99.9,0,0,100,0.00,40.00,12,5,14,0.00
2013-6-9,73.0,65.9,63.0,-99.9,-99.9,-99.9,0,0,100,0.00,40.00,16,8,20,0.16
2013-6-10,76.0,67.7,61.0,-99.9,-99.9,-99.9,0,0,100,0.00,40.00,8,3,12,0.03
2013-6-11,83.0,71.3,61.0,-99.9,-99.9,-99.9,0,0,100,0.00,40.00,9,2,14,0.00
2013-6-12,84.0,74.7,69.0,-99.9,-99.9,-99.9,0,0,100,0.00,40.00,17,5,28,0.53
2013-6-13,79.0,70.9,64.0,-99.9,-99.9,-99.9,0,0,100,0.00,40.00,13,7,18,0.53
2013-6-14,76.0,69.2,61.0,-99.9,-99.9,-99.9,0,0,100,0.00,40.00,11,6,14,0.00
2013-6-15,82.0,73.3,65.0,-99.9,-99.9,-99.9,0,0,100,0.00,40.00,13,6,19,0.00
2013-6-16,86.0,75.0,67.0,-99.9,-99.9,-99.9,0,0,100,0.00,40.00,8,3,13,0.00
2013-6-17,87.0,75.8,65.0,-99.9,-99.9,-99.9,0,0,100,0.00,40.00,11,4,15,0.00
2013-6-18,78.0,69.3,61.0,-99.9,-99.9,-99.9,0,0,100,0.00,40.00,6,3,13,0.00
2013-6-19,82.0,70.5,59.0,-99.9,-99.9,-99.9,0,0,100,0.00,40.00,8,4,10,0.00
2013-6-20,84.0,74.2,68.0,-99.9,-99.9,-99.9,0,0,100,0.00,40.00,12,7,16,0.00
2013-6-22,87.0,79.8,70.0,-99.9,-99.9,-99.9,0,0,100,0.00,40.00,19,12,25,0.65
2013-6-23,84.0,76.2,68.0,-99.9,-99.9,-99.9,0,0,100,0.00,40.00,15,8,26,0.03
2013-6-24,75.0,71.3,69.0,-99.9,-99.9,-99.9,0,0,100,0.00,40.00,12,6,16,0.01
2013-6-25,83.0,73.8,67.0,-99.9,-99.9,-99.9,0,0,100,0.00,40.00,14,4,29,51.34
2013-6-26,85.0,76.1,68.0,-99.9,-99.9,-99.9,0,0,100,0.00,40.00,8,3,13,28.52
2013-6-27,88.0,78.7,71.0,-99.9,-99.9,-99.9,0,0,100,0.00,40.00,16,5,25,2.81
2013-6-28,79.0,73.3,67.0,-99.9,-99.9,-99.9,0,0,100,0.00,40.00,19,9,24,0.00
2013-6-29,74.0,69.3,66.0,-99.9,-99.9,-99.9,0,0,100,0.00,40.00,14,11,18,0.16
2013-6-30,78.0,70.4,64.0,-99.9,-99.9,-99.9,0,0,100,0.00,40.00,13,9,17,0.14
2013-7-1,79.0,70.9,62.0,-99.9,-99.9,-99.9,0,0,100,0.00,40.00,10,4,17,0.00
2013-7-2,80.0,70.8,63.0,-99.9,-99.9,-99.9,0,0,100,0.00,40.00,8,2,11,0.00
2013-7-3,77.0,67.6,59.0,-99.9,-99.9,-99.9,0,0,100,0.00,40.00,6,3,9,0.00
2013-7-4,82.0,72.6,62.0,-99.9,-99.9,-99.9,0,0,100,0.00,40.00,9,4,12,0.00
2013-7-5,85.0,76.5,68.0,-99.9,-99.9,-99.9,0,0,100,0.00,40.00,13,6,18,0.00
2013-7-6,86.0,76.8,71.0,-99.9,-99.9,-99.9,0,0,100,0.00,40.00,11,7,15,0.00
2013-7-7,88.0,80.6,72.0,-99.9,-99.9,-99.9,0,0,100,0.00,40.00,13,7,16,0.00
2013-7-8,91.0,77.9,71.0,-99.9,-99.9,-99.9,0,0,100,0.00,40.00,11,5,15,1.68
2013-7-9,86.0,79.6,73.0,-99.9,-99.9,-99.9,0,0,100,0.00,40.00,11,5,16,0.37
2013-7-10,80.0,74.7,71.0,-99.9,-99.9,-99.9,0,0,100,0.00,40.00,15,7,20,0.02
2013-7-11,83.0,73.5,66.0,-99.9,-99.9,-99.9,0,0,100,0.00,40.00,7,2,9,0.00
2013-7-12,82.0,73.4,65.0,-99.9,-99.9,-99.9,0,0,100,0.00,40.00,9,5,14,0.00
2013-7-13,81.0,73.4,67.0,-99.9,-99.9,-99.9,0,0,100,0.00,40.00,10,5,12,0.00
2013-7-14,85.0,76.6,66.0,-99.9,-99.9,-99.9,0,0,100,0.00,40.00,11,5,16,0.00
2013-7-15,89.0,80.5,72.0,-99.9,-99.9,-99.9,0,0,100,0.00,40.00,7,3,10,0.00
2013-7-16,91.0,83.3,76.0,-99.9,-99.9,-99.9,0,0,100,0.00,40.00,10,3,12,0.00
2013-7-17,97.0,86.2,78.0,-99.9,-99.9,-99.9,0,0,100,0.00,40.00,5,2,5,0.00
2013-7-18,92.0,87.7,77.0,-99.9,-99.9,-99.9,0,0,100,0.00,40.00,9,4,15,0.00
2013-7-19,92.0,84.4,77.0,-99.9,-99.9,-99.9,0,0,100,0.00,40.00,11,6,15,0.08
2013-7-20,87.0,76.3,70.0,-99.9,-99.9,-99.9,0,0,100,0.00,40.00,9,4,14,0.01
2013-7-21,83.0,74.2,67.0,-99.9,-99.9,-99.9,0,0,100,0.00,40.00,12,4,15,0.22
2013-7-22,86.0,75.9,66.0,-99.9,-99.9,-99.9,0,0,100,0.00,40.00,17,6,27,0.21
2013-7-23,77.0,72.2,67.0,-99.9,-99.9,-99.9,0,0,100,0.00,40.00,16,8,24,0.03
2013-7-24,77.0,68.4,60.0,-99.9,-99.9,-99.9,0,0,100,0.00,40.00,6,2,9,0.01
2013-7-25,82.0,71.3,63.0,-99.9,-99.9,-99.9,0,0,100,0.00,40.00,13,5,17,0.25
2013-7-26,79.0,70.2,66.0,-99.9,-99.9,-99.9,0,0,100,0.00,40.00,20,8,28,0.34
2013-7-27,66.0,59.5,55.0,-99.9,-99.9,-99.9,0,0,100,0.00,40.00,17,9,20,0.15
2013-7-28,70.0,61.2,54.0,-99.9,-99.9,-99.9,0,0,100,0.00,40.00,13,6,18,0.01
2013-7-29,77.0,66.7,57.0,-99.9,-99.9,-99.9,0,0,100,0.00,40.00,6,2,8,0.00
2013-7-30,71.0,66.1,63.0,-99.9,-99.9,-99.9,0,0,100,0.00,40.00,11,5,15,0.00
2013-7-31,81.0,70.8,65.0,-99.9,-99.9,-99.9,0,0,100,0.00,40.00,11,4,14,0.00
2013-8-1,85.0,73.0,64.0,-99.9,-99.9,-99.9,0,0,100,0.00,40.00,10,3,13,0.00
2013-8-2,81.0,73.9,68.0,-99.9,-99.9,-99.9,0,0,100,0.00,40.00,9,4,12,0.00
2013-8-3,80.0,70.9,63.0,-99.9,-99.9,-99.9,0,0,100,0.00,40.00,11,5,14,0.00
2013-8-4,80.0,70.0,60.0,-99.9,-99.9,-99.9,0,0,100,0.00,40.00,5,2,7,0.00
2013-8-5,73.0,68.2,62.0,-99.9,-99.9,-99.9,0,0,100,0.00,40.00,14,7,21,0.40
2013-8-6,85.0,75.0,69.0,-99.9,-99.9,-99.9,0,0,100,0.00,40.00,9,4,12,0.03
2013-8-7,78.0,75.0,69.0,-99.9,-99.9,-99.9,0,0,100,0.00,40.00,16,7,21,0.00
2013-8-8,81.0,71.9,63.0,-99.9,-99.9,-99.9,0,0,100,0.00,40.00,9,3,13,0.00
2013-8-9,79.0,71.8,65.0,-99.9,-99.9,-99.9,0,0,100,0.00,40.00,11,4,14,0.00
2013-8-10,77.0,69.8,63.0,-99.9,-99.9,-99.9,0,0,100,0.00,40.00,10,5,14,0.00
2013-8-11,79.0,71.7,65.0,-99.9,-99.9,-99.9,0,0,100,0.00,40.00,7,2,9,0.00
2013-8-12,80.0,73.1,68.0,-99.9,-99.9,-99.9,0,0,100,0.00,40.00,15,6,18,0.00
2013-8-13,72.0,65.9,61.0,-99.9,-99.9,-99.9,0,0,100,0.00,40.00,12,5,15,0.00
2013-8-14,77.0,65.0,56.0,-99.9,-99.9,-99.9,0,0,100,0.00,40.00,7,2,9,0.00
2013-8-15,79.0,62.2,60.0,-99.9,-99.9,-99.9,0,0,100,0.00,40.00,4,1,7,0.00
2013-8-16,79.0,67.2,59.0,-99.9,-99.9,-99.9,0,0,100,0.00,40.00,6,2,8,0.00
2013-8-17,83.0,70.1,60.0,-99.9,-99.9,-99.9,0,0,100,0.00,40.00,6,2,9,0.00
2013-8-18,81.0,70.7,61.0,-99.9,-99.9,-99.9,0,0,100,0.00,40.00,7,2,11,0.00
2013-8-19,83.0,69.2,64.0,-99.9,-99.9,-99.9,0,0,100,0.00,40.00,7,3,19,0.00
2013-8-20,85.0,76.3,70.0,-99.9,-99.9,-99.9,0,0,100,0.00,40.00,13,7,17,0.00
2013-8-21,88.0,79.9,73.0,-99.9,-99.9,-99.9,0,0,100,0.00,40.00,12,6,23,0.03
2013-8-22,78.0,73.4,69.0,-99.9,-99.9,-99.9,0,0,100,0.00,40.00,11,4,20,0.80
2013-8-23,81.0,73.5,66.0,-99.9,-99.9,-99.9,0,0,100,0.00,40.00,10,5,14,0.01
2013-8-24,83.0,73.6,65.0,-99.9,-99.9,-99.9,0,0,100,0.00,40.00,12,7,15,0.00
2013-8-25,89.0,81.2,74.0,-99.9,-99.9,-99.9,0,0,100,0.00,40.00,10,8,16,0.00
2013-8-26,91.0,81.7,73.0,-99.9,-99.9,-99.9,0,0,100,0.00,40.00,10,5,13,0.00
2013-8-27,92.0,82.2,77.0,-99.9,-99.9,-99.9,0,0,100,0.00,40.00,10,5,13,0.00
2013-8-28,86.0,81.7,77.0,-99.9,-99.9,-99.9,0,0,100,0.00,40.00,4,2,7,0.00
2013-8-29,86.0,79.1,72.0,-99.9,-99.9,-99.9,0,0,100,0.00,40.00,9,6,12,0.00
2013-8-30,95.0,82.4,76.0,-99.9,-99.9,-99.9,0,0,100,0.00,40.00,7,4,10,0.08
2013-8-31,85.0,75.1,69.0,-99.9,-99.9,-99.9,0,0,100,0.00,40.00,8,3,15,2.17
2013-9-1,85.0,75.6,70.0,-99.9,-99.9,-99.9,0,0,100,0.00,40.00,12,6,17,0.01
2013-9-2,71.0,67.1,63.0,-99.9,-99.9,-99.9,0,0,100,0.00,40.00,16,11,20,0.00
2013-9-3,76.0,65.8,55.0,-99.9,-99.9,-99.9,0,0,100,0.00,40.00,8,3,11,0.00
2013-9-4,86.0,71.4,59.0,-99.9,-99.9,-99.9,0,0,100,0.00,40.00,5,2,7,0.00
2013-9-5,79.0,72.6,66.0,-99.9,-99.9,-99.9,0,0,100,0.00,40.00,7,4,10,0.00
2013-9-6,87.0,73.3,62.0,-99.9,-99.9,-99.9,0,0,100,0.00,40.00,10,6,15,0.00
2013-9-7,90.0,77.1,69.0,-99.9,-99.9,-99.9,0,0,100,0.00,40.00,9,4,13,0.00
2013-9-8,77.0,72.9,69.0,-99.9,-99.9,-99.9,0,0,100,0.00,40.00,9,4,17,0.00
2013-9-9,96.0,78.2,69.0,-99.9,-99.9,-99.9,0,0,100,0.00,40.00,10,5,15,0.00
2013-9-10,94.0,82.5,77.0,-99.9,-99.9,-99.9,0,0,100,0.00,40.00,10,5,21,0.00
2013-9-11,84.0,75.5,68.0,-99.9,-99.9,-99.9,0,0,100,0.00,40.00,18,2,28,0.02
2013-9-12,75.0,69.6,65.0,-99.9,-99.9,-99.9,0,0,100,0.00,40.00,21,10,28,0.02
2013-9-13,69.0,60.5,52.0,-99.9,-99.9,-99.9,0,0,100,0.00,40.00,11,5,15,0.00
2013-9-14,72.0,61.3,51.0,-99.9,-99.9,-99.9,0,0,100,0.00,40.00,10,6,14,0.00
2013-9-15,65.0,60.4,57.0,-99.9,-99.9,-99.9,0,0,100,0.00,40.00,11,6,15,0.49
2013-9-16,67.0,59.5,52.0,-99.9,-99.9,-99.9,0,0,100,0.00,40.00,6,3,10,0.01
2013-9-17,67.0,58.9,49.0,-99.9,-99.9,-99.9,0,0,100,0.00,40.00,14,6,20,0.00
2013-9-18,75.0,66.7,65.0,-99.9,-99.9,-99.9,0,0,100,0.00,40.00,9,7,13,0.18
2013-9-19,89.0,74.7,67.0,-99.9,-99.9,-99.9,0,0,100,0.00,40.00,9,6,14,0.55
2013-9-20,68.0,63.6,58.0,-99.9,-99.9,-99.9,0,0,100,0.00,40.00,11,5,16,0.69
2013-9-21,65.0,56.8,51.0,-99.9,-99.9,-99.9,0,0,100,0.00,40.00,11,6,17,0.01
2013-9-22,70.0,58.4,49.0,-99.9,-99.9,-99.9,0,0,100,0.00,40.00,6,2,9,0.01
2013-9-23,70.0,60.3,51.0,-99.9,-99.9,-99.9,0,0,100,0.00,40.00,13,7,16,0.00
2013-9-24,73.0,62.1,54.0,-99.9,-99.9,-99.9,0,0,100,0.00,40.00,8,5,11,0.00
2013-9-25,75.0,61.9,52.0,-99.9,-99.9,-99.9,0,0,100,0.00,40.00,6,2,10,0.00
2013-9-26,77.0,65.0,52.0,-99.9,-99.9,-99.9,0,0,100,0.00,40.00,12,6,16,0.00
2013-9-27,79.0,68.9,60.0,-99.9,-99.9,-99.9,0,0,100,0.00,40.00,14,7,19,0.00
2013-9-28,77.0,65.4,56.0,-99.9,-99.9,-99.9,0,0,100,0.00,40.00,18,8,26,0.18
2013-9-29,70.0,59.2,50.0,-99.9,-99.9,-99.9,0,0,100,0.00,40.00,7,3,9,0.05
2013-9-30,75.0,62.9,52.0,-99.9,-99.9,-99.9,0,0,100,0.00,40.00,14,7,19,0.00
2013-10-1,70.0,65.3,62.0,-99.9,-99.9,-99.9,0,0,100,0.00,40.00,3,1,5,0.00
2013-10-2,77.0,66.0,55.0,-99.9,-99.9,-99.9,0,0,100,0.00,40.00,9,3,13,0.01
2013-10-3,74.0,68.2,64.0,-99.9,-99.9,-99.9,0,0,100,0.00,40.00,9,4,13,0.07
2013-10-4,71.0,67.7,65.0,-99.9,-99.9,-99.9,0,0,100,0.00,40.00,22,5,25,0.55
2013-10-5,73.0,67.8,55.0,-99.9,-99.9,-99.9,0,0,100,0.00,40.00,9,5,15,0.02
2013-10-6,56.0,49.2,45.0,-99.9,-99.9,-99.9,0,0,100,0.00,40.00,7,3,12,0.05
2013-10-7,70.0,56.5,45.0,-99.9,-99.9,-99.9,0,0,100,0.00,40.00,14,3,20,0.04
2013-10-8,76.0,62.0,52.0,-99.9,-99.9,-99.9,0,0,100,0.00,40.00,12,5,17,0.00
2013-10-9,70.0,62.2,55.0,-99.9,-99.9,-99.9,0,0,100,0.00,40.00,10,5,14,0.00
2013-10-10,72.0,60.7,50.0,-99.9,-99.9,-99.9,0,0,100,0.00,40.00,9,3,13,0.00
2013-10-11,75.0,65.2,57.0,-99.9,-99.9,-99.9,0,0,100,0.00,40.00,21,9,27,0.00
2013-10-12,70.0,62.2,52.0,-99.9,-99.9,-99.9,0,0,100,0.00,40.00,12,5,16,0.00
2013-10-13,62.0,52.6,44.0,-99.9,-99.9,-99.9,0,0,100,0.00,40.00,8,3,11,0.00
2013-10-14,63.0,52.3,41.0,-99.9,-99.9,-99.9,0,0,100,0.00,40.00,14,6,19,0.00
2013-10-15,61.0,55.5,51.0,-99.9,-99.9,-99.9,0,0,100,0.00,40.00,18,8,24,0.05
2013-10-16,52.0,50.8,49.0,-99.9,-99.9,-99.9,0,0,100,0.00,40.00,10,5,14,0.00
2013-10-17,58.0,50.4,47.0,-99.9,-99.9,-99.9,0,0,100,0.00,40.00,5,2,7,0.07
2013-10-18,51.0,47.0,44.0,-99.9,-99.9,-99.9,0,0,100,0.00,40.00,13,5,18,0.01
2013-10-19,54.0,43.9,38.0,-99.9,-99.9,-99.9,0,0,100,0.00,40.00,9,3,14,0.04
2013-10-20,54.0,44.1,35.0,-99.9,-99.9,-99.9,0,0,100,0.00,40.00,12,5,14,0.04
2013-10-21,50.0,41.0,36.0,-99.9,-99.9,-99.9,0,0,100,0.00,40.00,18,7,27,0.00
2013-10-22,44.0,37.8,32.0,-99.9,-99.9,-99.9,0,0,100,0.00,40.00,14,3,19,0.00
2013-10-23,43.0,37.9,32.0,-99.9,-99.9,-99.9,0,0,100,0.00,40.00,12,6,17,0.00
2013-10-24,43.0,37.8,34.0,-99.9,-99.9,-99.9,0,0,100,0.00,40.00,15,8,19,0.00
2013-10-25,53.0,42.0,30.0,-99.9,-99.9,-99.9,0,0,100,0.00,40.00,12,5,18,0.00
2013-10-26,50.0,45.3,38.0,-99.9,-99.9,-99.9,0,0,100,0.00,40.00,19,9,28,0.00
2013-10-27,56.0,42.7,32.0,-99.9,-99.9,-99.9,0,0,100,0.00,40.00,10,3,13,0.00
2013-10-28,47.0,42.4,39.0,-99.9,-99.9,-99.9,0,0,100,0.00,40.00,10,3,18,0.00
2013-10-29,57.0,47.4,39.0,-99.9,-99.9,-99.9,0,0,100,0.00,40.00,8,4,14,0.00
2013-10-30,58.0,52.1,50.0,-99.9,-99.9,-99.9,0,0,100,0.00,40.00,10,5,15,0.09
2013-10-31,61.0,52.4,44.0,-99.9,-99.9,-99.9,0,0,100,0.00,40.00,11,6,15,0.15
2013-11-1,50.0,45.5,42.0,-99.9,-99.9,-99.9,0,0,100,0.00,40.00,7,3,12,0.01
2013-11-2,46.0,40.9,35.0,-99.9,-99.9,-99.9,0,0,100,0.00,40.00,12,6,18,0.00
2013-11-3,51.0,41.6,31.0,-99.9,-99.9,-99.9,0,0,100,0.00,40.00,17,9,24,0.00
2013-11-4,54.0,49.5,46.0,-99.9,-99.9,-99.9,0,0,100,0.00,40.00,19,12,29,0.00
2013-11-5,55.0,50.5,47.0,-99.9,-99.9,-99.9,0,0,100,0.00,40.00,17,6,21,0.26
2013-11-6,56.0,44.9,36.0,-99.9,-99.9,-99.9,0,0,100,0.00,40.00,22,12,29,0.23
2013-11-7,43.0,35.7,30.0,-99.9,-99.9,-99.9,0,0,100,0.00,40.00,11,3,15,0.02
2013-11-8,50.0,39.7,29.0,-99.9,-99.9,-99.9,0,0,100,0.00,40.00,19,8,24,0.00
2013-11-9,53.0,47.9,41.0,-99.9,-99.9,-99.9,0,0,100,0.00,40.00,18,7,25,0.00
2013-11-10,48.0,41.9,35.0,-99.9,-99.9,-99.9,0,0,100,0.00,40.00,15,6,19,0.00
2013-11-11,47.0,36.9,27.0,-99.9,-99.9,-99.9,0,0,100,0.00,40.00,20,11,27,0.08
2013-11-12,29.0,24.3,20.0,-99.9,-99.9,-99.9,0,0,100,0.00,40.00,16,6,23,0.02
2013-11-13,44.0,32.6,20.0,-99.9,-99.9,-99.9,0,0,100,0.00,40.00,12,8,20,0.00
2013-11-14,50.0,41.1,34.0,-99.9,-99.9,-99.9,0,0,100,0.00,40.00,10,6,14,0.00
2013-11-15,54.0,43.9,34.0,-99.9,-99.9,-99.9,0,0,100,0.00,40.00,8,5,12,0.00
2013-11-16,59.0,49.1,42.0,-99.9,-99.9,-99.9,0,0,100,0.00,40.00,19,11,27,0.09
2013-11-17,58.0,49.5,42.0,-99.9,-99.9,-99.9,0,0,100,0.00,40.00,17,8,23,0.99
2013-11-18,42.0,37.2,33.0,-99.9,-99.9,-99.9,0,0,100,0.00,40.00,17,9,22,0.01
2013-11-19,41.0,34.9,28.0,-99.9,-99.9,-99.9,0,0,100,0.00,40.00,13,6,18,0.00
2013-11-20,39.0,37.7,37.0,-99.9,-99.9,-99.9,0,0,100,0.00,40.00,17,11,22,0.02
2013-11-21,42.0,40.1,39.0,-99.9,-99.9,-99.9,0,0,100,0.00,40.00,12,5,16,0.01
2013-11-22,40.0,31.1,23.0,-99.9,-99.9,-99.9,0,0,100,0.00,40.00,19,10,24,0.03
2013-11-23,25.0,20.2,15.0,-99.9,-99.9,-99.9,0,0,100,0.00,40.00,22,13,31,0.00
2013-11-24,28.0,20.3,10.0,-99.9,-99.9,-99.9,0,0,100,0.00,40.00,11,7,16,0.00
2013-11-25,33.0,28.5,24.0,-99.9,-99.9,-99.9,0,0,100,0.00,40.00,12,6,17,0.02
2013-11-26,34.0,28.5,19.0,-99.9,-99.9,-99.9,0,0,100,0.00,40.00,18,10,26,0.01
2013-11-27,25.0,19.8,13.0,-99.9,-99.9,-99.9,0,0,100,0.00,40.00,17,8,25,0.00
2013-11-28,29.0,24.4,19.0,-99.9,-99.9,-99.9,0,0,100,0.00,40.00,12,4,15,0.00
2013-11-29,33.0,25.1,14.0,-99.9,-99.9,-99.9,0,0,100,0.00,40.00,12,5,16,0.00
2013-11-30,44.0,34.4,29.0,-99.9,-99.9,-99.9,0,0,100,0.00,40.00,9,5,14,0.00
2013-12-1,40.0,33.0,28.0,-99.9,-99.9,-99.9,0,0,100,0.00,40.00,11,3,13,0.00
2013-12-2,40.0,34.3,28.0,-99.9,-99.9,-99.9,0,0,100,0.00,40.00,11,5,16,0.01
2013-12-3,41.0,38.2,36.0,-99.9,-99.9,-99.9,0,0,100,0.00,40.00,7,3,11,0.09
2013-12-4,48.0,40.3,31.0,-99.9,-99.9,-99.9,0,0,100,0.00,40.00,7,3,17,0.02
2013-12-5,30.0,20.7,15.0,-99.9,-99.9,-99.9,0,0,100,0.00,40.00,12,7,18,0.01
2013-12-6,16.0,11.7,7.0,-99.9,-99.9,-99.9,0,0,100,0.00,40.00,17,10,20,0.00
2013-12-7,14.0,8.4,2.0,-99.9,-99.9,-99.9,0,0,100,0.00,40.00,12,6,16,0.00
2013-12-8,20.0,16.6,12.0,-99.9,-99.9,-99.9,0,0,100,0.00,40.00,8,4,13,0.00
2013-12-9,18.0,8.7,-1.0,-99.9,-99.9,-99.9,0,0,100,0.00,40.00,7,2,11,0.00
2013-12-10,18.0,11.5,-1.0,-99.9,-99.9,-99.9,0,0,100,0.00,40.00,12,6,22,0.00
2013-12-11,18.0,7.2,-2.0,-99.9,-99.9,-99.9,0,0,100,0.00,40.00,18,7,25,0.00
2013-12-12,20.0,11.5,-2.0,-99.9,-99.9,-99.9,0,0,100,0.00,40.00,9,4,11,0.00
2013-12-13,26.0,20.5,12.0,-99.9,-99.9,-99.9,0,0,100,0.00,40.00,7,3,18,0.00
2013-12-14,25.0,22.1,19.0,-99.9,-99.9,-99.9,0,0,100,0.00,40.00,10,7,14,0.00
2013-12-15,18.0,11.0,6.0,-99.9,-99.9,-99.9,0,0,100,0.00,40.00,13,8,19,0.00
2013-12-16,20.0,13.2,9.0,-99.9,-99.9,-99.9,0,0,100,0.00,40.00,6,2,8,0.00
2013-12-17,36.0,26.1,17.0,-99.9,-99.9,-99.9,0,0,100,0.00,40.00,17,9,27,0.09
2013-12-18,37.0,27.5,15.0,-99.9,-99.9,-99.9,0,0,100,0.00,40.00,18,7,28,0.02
2013-12-19,33.0,28.2,22.0,-99.9,-99.9,-99.9,0,0,100,0.00,40.00,10,4,13,0.01
2013-12-20,31.0,25.6,24.0,-99.9,-99.9,-99.9,0,0,100,0.00,40.00,11,6,15,0.00
2013-12-21,29.0,26.3,25.0,-99.9,-99.9,-99.9,0,0,100,0.00,40.00,12,5,14,0.00
2013-12-22,29.0,25.2,20.0,-99.9,-99.9,-99.9,0,0,100,0.00,40.00,16,10,19,0.00
2013-12-23,19.0,2.0,-9.0,-99.9,-99.9,-99.9,0,0,100,0.00,40.00,6,2,9,0.00
2013-12-24,11.0,-2.1,-17.0,-99.9,-99.9,-99.9,0,0,100,0.00,40.00,9,4,14,0.00
2013-12-25,25.0,20.7,11.0,-99.9,-99.9,-99.9,0,0,100,0.00,40.00,12,5,18,0.00
2013-12-26,30.0,24.2,14.0,-99.9,-99.9,-99.9,0,0,100,0.00,40.00,10,4,12,0.07
2013-12-27,40.0,27.2,9.0,-99.9,-99.9,-99.9,0,0,100,0.00,40.00,11,4,15,0.02
2013-12-28,44.0,35.0,24.0,-99.9,-99.9,-99.9,0,0,100,0.00,40.00,11,6,14,0.01
2013-12-29,37.0,20.0,-3.0,-99.9,-99.9,-99.9,0,0,100,0.00,40.00,25,15,31,0.00
2013-12-30,6.0,-2.3,-10.0,-99.9,-99.9,-99.9,0,0,100,0.00,40.00,8,3,10,0.00
2013-12-31,8.0,1.5,-9.0,-99.9,-99.9,-99.9,0,0,100,0.00,40.00,5,2,10,0.00
2014-1-1,10.0,7.0,3.0,-99.9,-99.9,-99.9,0,0,100,0.00,40.00,12,6,13,0.00
2014-1-2,11.0,7.4,-8.0,-99.9,-99.9,-99.9,0,0,100,0.00,40.00,13,10,16,0.00